createdAt,value
2018-04-25T00:01:48.685Z,18.11
2018-04-25T00:04:16.421Z,18.11
2018-04-25T00:06:43.980Z,18.11
2018-04-25T00:09:11.761Z,18.08
2018-04-25T00:11:39.307Z,18.09
2018-04-25T00:14:07.636Z,18.08
2018-04-25T00:16:35.229Z,18.11
2018-04-25T00:19:02.925Z,18.04
2018-04-25T00:21:33.182Z,18.02
2018-04-25T00:24:00.856Z,17.86
2018-04-25T00:26:28.516Z,17.67
2018-04-25T00:28:56.096Z,17.58
2018-04-25T00:31:24.570Z,17.47
2018-04-25T00:33:52.284Z,17.47
2018-04-25T00:36:19.888Z,17.45
2018-04-25T00:38:48.345Z,17.41
2018-04-25T00:41:15.956Z,17.38
2018-04-25T00:43:43.580Z,17.32
2018-04-25T00:46:11.365Z,17.37
2018-04-25T00:48:39.028Z,17.33
2018-04-25T00:51:06.613Z,17.33
2018-04-25T00:53:34.182Z,17.35
2018-04-25T00:56:04.550Z,17.34
2018-04-25T00:58:32.221Z,17.33
2018-04-25T01:00:59.893Z,17.30
2018-04-25T01:03:27.547Z,17.28
2018-04-25T01:05:55.145Z,17.24
2018-04-25T01:08:22.752Z,17.24
2018-04-25T01:10:50.388Z,17.21
2018-04-25T01:13:18.788Z,17.15
2018-04-25T01:15:46.425Z,17.14
2018-04-25T01:18:14.933Z,17.14
2018-04-25T01:20:43.421Z,17.13
2018-04-25T01:23:11.122Z,17.09
2018-04-25T01:25:39.644Z,17.10
2018-04-25T01:28:10.585Z,17.10
2018-04-25T01:30:46.031Z,17.18
2018-04-25T01:36:36.212Z,17.18
2018-04-25T01:39:08.754Z,17.16
2018-04-25T01:41:36.503Z,17.18
2018-04-25T01:47:05.664Z,17.16
2018-04-25T01:49:56.914Z,17.07
2018-04-25T01:52:36.394Z,17.01
2018-04-25T01:55:15.553Z,16.94
2018-04-25T01:57:54.893Z,16.88
2018-04-25T02:00:34.321Z,16.81
2018-04-25T02:03:01.345Z,16.75
2018-04-25T02:05:29.000Z,16.67
2018-04-25T02:07:56.552Z,16.59
2018-04-25T02:10:24.150Z,16.45
2018-04-25T02:12:51.716Z,16.40
2018-04-25T02:15:19.405Z,16.30
2018-04-25T02:17:47.051Z,16.16
2018-04-25T02:20:14.757Z,16.05
2018-04-25T02:22:43.279Z,15.92
2018-04-25T02:25:10.877Z,15.80
2018-04-25T02:27:38.470Z,15.67
2018-04-25T02:30:06.905Z,15.59
2018-04-25T02:32:34.523Z,15.52
2018-04-25T02:35:02.953Z,15.42
2018-04-25T02:37:30.633Z,15.37
2018-04-25T02:39:58.213Z,15.34
2018-04-25T02:42:25.845Z,15.29
2018-04-25T02:44:53.439Z,15.24
2018-04-25T02:47:21.005Z,15.18
2018-04-25T02:49:48.697Z,15.14
2018-04-25T02:52:16.264Z,15.06
2018-04-25T02:54:43.841Z,15.06
2018-04-25T02:57:12.292Z,15.08
2018-04-25T02:59:39.958Z,15.06
2018-04-25T03:02:07.570Z,15.07
2018-04-25T03:04:35.134Z,15.06
2018-04-25T03:07:02.745Z,15.03
2018-04-25T03:09:31.220Z,15.01
2018-04-25T03:11:58.789Z,14.99
2018-04-25T03:14:26.424Z,14.96
2018-04-25T03:16:54.039Z,14.91
2018-04-25T03:19:21.680Z,14.88
2018-04-25T03:21:49.247Z,14.86
2018-04-25T03:24:16.856Z,14.84
2018-04-25T03:26:45.196Z,14.83
2018-04-25T03:29:12.784Z,14.80
2018-04-25T03:31:40.351Z,14.80
2018-04-25T03:34:07.949Z,14.80
2018-04-25T03:36:35.598Z,14.82
2018-04-25T03:39:03.233Z,14.82
2018-04-25T03:41:30.854Z,14.85
2018-04-25T03:43:58.525Z,14.89
2018-04-25T03:46:26.141Z,14.95
2018-04-25T03:48:53.787Z,15.00
2018-04-25T03:51:21.348Z,15.08
2018-04-25T03:53:48.917Z,15.19
2018-04-25T03:56:16.592Z,15.29
2018-04-25T03:58:44.288Z,15.38
2018-04-25T04:01:12.025Z,15.40
2018-04-25T04:03:39.592Z,15.44
2018-04-25T04:06:07.326Z,15.58
2018-04-25T04:08:34.888Z,15.72
2018-04-25T04:11:02.504Z,15.89
2018-04-25T04:13:30.101Z,16.05
2018-04-25T04:15:57.791Z,16.10
2018-04-25T04:18:25.394Z,16.23
2018-04-25T04:20:52.985Z,16.74
2018-04-25T04:23:20.557Z,18.25
2018-04-25T04:25:48.121Z,19.88
2018-04-25T04:28:15.768Z,21.34
2018-04-25T04:30:43.945Z,22.36
2018-04-25T04:33:11.719Z,23.45
2018-04-25T04:35:39.307Z,24.50
2018-04-25T04:38:06.940Z,25.55
2018-04-25T04:40:34.510Z,26.12
2018-04-25T04:43:02.093Z,26.92
2018-04-25T04:45:29.728Z,27.66
2018-04-25T04:47:57.316Z,27.51
2018-04-25T04:50:24.945Z,28.32
2018-04-25T04:52:52.528Z,29.01
2018-04-25T04:55:21.057Z,29.51
2018-04-25T04:57:48.644Z,29.78
2018-04-25T05:00:16.248Z,29.84
2018-04-25T05:02:43.803Z,30.33
2018-04-25T05:05:11.371Z,30.42
2018-04-25T05:07:39.078Z,30.32
2018-04-25T05:10:06.701Z,29.87
2018-04-25T05:12:34.352Z,30.19
2018-04-25T05:15:01.977Z,30.70
2018-04-25T05:17:29.568Z,30.99
2018-04-25T05:19:57.136Z,31.04
2018-04-25T05:22:24.753Z,31.10
2018-04-25T05:24:52.511Z,31.50
2018-04-25T05:27:20.089Z,31.77
2018-04-25T05:29:47.729Z,31.69
2018-04-25T05:32:15.446Z,31.53
2018-04-25T05:34:43.037Z,31.28
2018-04-25T05:37:10.696Z,31.15
2018-04-25T05:39:38.460Z,30.75
2018-04-25T05:42:06.072Z,30.97
2018-04-25T05:44:33.656Z,31.08
2018-04-25T05:47:01.233Z,30.78
2018-04-25T05:49:28.980Z,30.35
2018-04-25T05:51:56.587Z,30.51
2018-04-25T05:54:24.210Z,30.85
2018-04-25T05:56:52.210Z,31.02
2018-04-25T05:59:19.768Z,31.21
2018-04-25T06:01:47.497Z,31.09
2018-04-25T06:04:15.115Z,31.63
2018-04-25T06:06:42.724Z,31.71
2018-04-25T06:09:10.316Z,32.60
2018-04-25T06:11:38.873Z,33.10
2018-04-25T06:14:06.467Z,32.89
2018-04-25T06:16:34.173Z,32.92
2018-04-25T06:19:01.749Z,32.74
2018-04-25T06:21:29.348Z,31.69
2018-04-25T06:23:57.031Z,29.99
2018-04-25T06:26:24.725Z,28.21
2018-04-25T06:28:52.295Z,27.49
2018-04-25T06:31:19.973Z,26.89
2018-04-25T06:33:47.591Z,26.52
2018-04-25T06:36:15.448Z,26.80
2018-04-25T06:38:43.029Z,28.21
2018-04-25T06:41:10.729Z,29.05
2018-04-25T06:43:38.311Z,28.82
2018-04-25T06:46:05.929Z,28.36
2018-04-25T06:48:33.572Z,27.33
2018-04-25T06:51:01.209Z,26.95
2018-04-25T06:53:28.861Z,26.53
2018-04-25T06:55:56.577Z,26.49
2018-04-25T06:58:24.213Z,26.92
2018-04-25T07:00:51.830Z,27.76
2018-04-25T07:03:19.409Z,27.75
2018-04-25T07:05:47.021Z,27.51
2018-04-25T07:08:14.700Z,27.01
2018-04-25T07:10:42.376Z,27.08
2018-04-25T07:13:10.024Z,27.82
2018-04-25T07:15:37.677Z,27.74
2018-04-25T07:18:05.238Z,27.68
2018-04-25T07:20:32.815Z,27.58
2018-04-25T07:23:00.453Z,27.49
2018-04-25T07:25:28.037Z,27.47
2018-04-25T07:27:55.679Z,27.73
2018-04-25T07:30:23.255Z,27.79
2018-04-25T07:32:50.953Z,27.61
2018-04-25T07:35:18.592Z,27.76
2018-04-25T07:37:46.161Z,27.77
2018-04-25T07:40:13.733Z,27.95
2018-04-25T07:42:41.362Z,28.23
2018-04-25T07:45:08.989Z,28.17
2018-04-25T07:47:36.613Z,28.15
2018-04-25T07:50:04.323Z,27.92
2018-04-25T07:52:31.892Z,27.91
2018-04-25T07:54:59.447Z,27.55
2018-04-25T07:57:27.025Z,27.76
2018-04-25T07:59:54.665Z,27.68
2018-04-25T08:02:22.280Z,27.56
2018-04-25T08:04:49.989Z,27.61
2018-04-25T08:07:17.704Z,27.61
2018-04-25T08:09:45.278Z,27.75
2018-04-25T08:12:24.711Z,27.85
2018-04-25T08:15:03.960Z,27.62
2018-04-25T08:17:43.457Z,27.66
2018-04-25T08:20:22.858Z,27.62
2018-04-25T08:22:50.469Z,27.85
2018-04-25T08:25:18.197Z,27.78
2018-04-25T08:27:45.864Z,27.87
2018-04-25T08:30:13.497Z,27.93
2018-04-25T08:32:41.117Z,27.77
2018-04-25T08:35:08.764Z,27.69
2018-04-25T08:37:36.348Z,27.76
2018-04-25T08:40:03.981Z,27.90
2018-04-25T08:42:31.612Z,27.84
2018-04-25T08:44:59.271Z,27.82
2018-04-25T08:47:26.901Z,28.10
2018-04-25T08:49:54.464Z,28.15
2018-04-25T08:52:22.068Z,27.92
2018-04-25T08:54:49.666Z,27.81
2018-04-25T08:57:17.321Z,27.91
2018-04-25T08:59:45.712Z,28.03
2018-04-25T09:02:13.376Z,28.11
2018-04-25T09:04:41.058Z,27.90
2018-04-25T09:07:08.681Z,28.15
2018-04-25T09:09:36.280Z,28.46
2018-04-25T09:12:03.827Z,28.64
2018-04-25T09:14:31.461Z,28.52
2018-04-25T09:16:59.160Z,28.34
2018-04-25T09:19:26.730Z,28.59
2018-04-25T09:21:54.430Z,28.57
2018-04-25T09:24:22.016Z,28.73
2018-04-25T09:26:49.573Z,28.99
2018-04-25T09:29:17.140Z,29.31
2018-04-25T09:31:44.848Z,29.58
2018-04-25T09:34:12.505Z,29.87
2018-04-25T09:36:40.091Z,29.97
2018-04-25T09:39:07.773Z,30.03
2018-04-25T09:41:35.329Z,30.02
2018-04-25T09:44:02.991Z,30.07
2018-04-25T09:46:30.642Z,30.05
2018-04-25T09:48:58.261Z,30.05
2018-04-25T09:51:25.974Z,29.87
2018-04-25T09:53:53.660Z,29.71
2018-04-25T09:56:21.407Z,30.03
2018-04-25T09:58:48.969Z,30.16
2018-04-25T10:01:22.216Z,30.45
2018-04-25T10:03:49.783Z,30.41
2018-04-25T10:06:17.420Z,30.21
2018-04-25T10:08:44.970Z,30.42
2018-04-25T10:11:12.555Z,30.39
2018-04-25T10:13:40.177Z,30.24
2018-04-25T10:16:07.732Z,29.86
2018-04-25T10:18:35.344Z,29.78
2018-04-25T10:21:02.904Z,29.84
2018-04-25T10:23:30.557Z,30.45
2018-04-25T10:25:58.131Z,30.82
2018-04-25T10:28:25.749Z,30.88
2018-04-25T10:30:53.425Z,30.94
2018-04-25T10:33:21.073Z,31.18
2018-04-25T10:35:48.709Z,31.77
2018-04-25T10:38:16.295Z,31.87
2018-04-25T10:40:43.936Z,32.45
2018-04-25T10:43:11.559Z,33.33
2018-04-25T10:45:39.192Z,33.61
2018-04-25T10:48:06.744Z,33.72
2018-04-25T10:50:34.311Z,33.53
2018-04-25T10:53:01.957Z,34.26
2018-04-25T10:55:29.644Z,34.88
2018-04-25T10:57:57.150Z,35.35
2018-04-25T11:00:24.716Z,36.27
2018-04-25T11:02:52.368Z,35.82
2018-04-25T11:05:19.928Z,35.11
2018-04-25T11:07:47.541Z,35.00
2018-04-25T11:10:15.183Z,34.92
2018-04-25T11:12:43.739Z,35.64
2018-04-25T11:15:11.297Z,35.03
2018-04-25T11:17:38.936Z,35.64
2018-04-25T11:20:06.576Z,35.79
2018-04-25T11:22:34.225Z,35.55
2018-04-25T11:25:01.950Z,36.61
2018-04-25T11:27:29.530Z,36.38
2018-04-25T11:29:57.092Z,37.02
2018-04-25T11:32:24.656Z,37.74
2018-04-25T11:34:52.286Z,37.43
2018-04-25T11:37:19.948Z,37.11
2018-04-25T11:39:47.578Z,37.29
2018-04-25T11:42:15.243Z,36.88
2018-04-25T11:44:42.838Z,36.86
2018-04-25T11:47:10.564Z,36.45
2018-04-25T11:49:38.084Z,35.52
2018-04-25T11:52:05.643Z,36.54
2018-04-25T11:54:33.210Z,35.96
2018-04-25T11:57:00.785Z,36.12
2018-04-25T11:59:28.464Z,36.94
2018-04-25T12:01:56.097Z,37.59
2018-04-25T12:04:23.753Z,38.27
2018-04-25T12:06:51.405Z,37.46
2018-04-25T12:09:18.960Z,37.69
2018-04-25T12:11:46.529Z,37.76
2018-04-25T12:14:14.104Z,37.75
2018-04-25T12:16:42.678Z,37.75
2018-04-25T12:19:10.272Z,37.89
2018-04-25T12:21:38.049Z,37.18
2018-04-25T12:24:05.649Z,37.32
2018-04-25T12:26:33.283Z,37.59
2018-04-25T12:29:00.859Z,38.38
2018-04-25T12:31:28.441Z,38.17
2018-04-25T12:33:56.052Z,39.22
2018-04-25T12:36:23.655Z,40.18
2018-04-25T12:38:51.397Z,38.63
2018-04-25T12:41:18.988Z,38.85
2018-04-25T12:43:46.629Z,38.91
2018-04-25T12:46:14.196Z,38.87
2018-04-25T12:48:41.768Z,38.39
2018-04-25T12:51:09.396Z,38.66
2018-04-25T12:53:37.024Z,38.77
2018-04-25T12:56:04.648Z,37.96
2018-04-25T12:58:32.285Z,38.57
2018-04-25T13:00:59.905Z,38.45
2018-04-25T13:03:27.558Z,39.06
2018-04-25T13:05:55.221Z,39.73
2018-04-25T13:08:22.893Z,38.18
2018-04-25T13:10:50.509Z,39.31
2018-04-25T13:13:18.078Z,39.71
2018-04-25T13:15:45.729Z,40.29
2018-04-25T13:18:19.894Z,38.99
2018-04-25T13:20:47.577Z,39.31
2018-04-25T13:23:15.133Z,39.31
2018-04-25T13:25:42.860Z,38.32
2018-04-25T13:28:10.426Z,36.88
2018-04-25T13:30:38.068Z,35.69
2018-04-25T13:33:05.710Z,34.65
2018-04-25T13:35:33.285Z,33.74
2018-04-25T13:38:00.961Z,33.58
2018-04-25T13:40:28.624Z,32.69
2018-04-25T13:42:56.270Z,31.84
2018-04-25T13:45:23.915Z,31.49
2018-04-25T13:47:51.476Z,31.38
2018-04-25T13:50:19.161Z,31.19
2018-04-25T13:52:46.752Z,30.99
2018-04-25T13:55:14.385Z,30.50
2018-04-25T13:57:41.972Z,30.52
2018-04-25T14:00:09.649Z,30.46
2018-04-25T14:02:37.269Z,30.36
2018-04-25T14:05:04.828Z,30.38
2018-04-25T14:07:32.454Z,30.14
2018-04-25T14:10:00.005Z,29.99
2018-04-25T14:12:27.575Z,29.78
2018-04-25T14:14:55.136Z,29.65
2018-04-25T14:17:22.760Z,29.59
2018-04-25T14:19:50.417Z,29.51
2018-04-25T14:22:17.970Z,29.45
2018-04-25T14:24:45.605Z,29.43
2018-04-25T14:27:13.196Z,29.43
2018-04-25T14:29:40.870Z,29.35
2018-04-25T14:32:08.448Z,29.28
2018-04-25T14:34:36.060Z,29.21
2018-04-25T14:37:03.617Z,29.04
2018-04-25T14:39:31.240Z,28.88
2018-04-25T14:41:58.806Z,28.79
2018-04-25T14:44:26.374Z,28.72
2018-04-25T14:46:53.937Z,28.65
2018-04-25T14:49:21.484Z,28.60
2018-04-25T14:51:49.106Z,28.52
2018-04-25T14:54:16.659Z,28.54
2018-04-25T14:56:44.860Z,28.44
2018-04-25T14:59:13.409Z,28.35
2018-04-25T15:01:41.071Z,28.25
2018-04-25T15:04:08.688Z,28.21
2018-04-25T15:06:36.285Z,28.07
2018-04-25T15:09:03.953Z,28.01
2018-04-25T15:11:31.554Z,27.94
2018-04-25T15:13:59.206Z,27.88
2018-04-25T15:16:26.792Z,27.84
2018-04-25T15:18:54.411Z,27.83
2018-04-25T15:21:22.019Z,27.83
2018-04-25T15:23:49.607Z,27.78
2018-04-25T15:26:17.248Z,27.77
2018-04-25T15:28:44.836Z,27.67
2018-04-25T15:31:12.513Z,27.63
2018-04-25T15:33:40.133Z,27.48
2018-04-25T15:36:07.707Z,27.44
2018-04-25T15:38:35.276Z,27.36
2018-04-25T15:41:02.990Z,27.27
2018-04-25T15:43:30.653Z,27.33
2018-04-25T15:45:58.220Z,27.28
2018-04-25T15:48:25.981Z,27.17
2018-04-25T15:50:53.632Z,27.09
2018-04-25T15:53:21.415Z,27.02
2018-04-25T15:55:49.018Z,26.93
2018-04-25T15:58:16.635Z,26.86
2018-04-25T16:00:44.298Z,26.78
2018-04-25T16:03:11.871Z,26.74
2018-04-25T16:05:39.544Z,26.66
2018-04-25T16:08:07.132Z,26.55
2018-04-25T16:10:34.801Z,26.46
2018-04-25T16:13:02.453Z,26.38
2018-04-25T16:15:30.069Z,26.26
2018-04-25T16:17:57.636Z,26.17
2018-04-25T16:20:25.234Z,26.09
2018-04-25T16:22:53.002Z,26.01
2018-04-25T16:25:20.539Z,25.90
2018-04-25T16:27:48.110Z,25.81
2018-04-25T16:30:15.675Z,25.68
2018-04-25T16:32:43.254Z,25.53
2018-04-25T16:35:10.980Z,25.37
2018-04-25T16:37:38.532Z,25.20
2018-04-25T16:40:06.198Z,25.03
2018-04-25T16:42:33.829Z,24.83
2018-04-25T16:45:01.477Z,24.63
2018-04-25T16:47:29.101Z,24.48
2018-04-25T16:49:56.657Z,24.32
2018-04-25T16:52:24.225Z,24.09
2018-04-25T16:54:51.848Z,23.93
2018-04-25T16:57:19.591Z,23.77
2018-04-25T16:59:47.196Z,23.58
2018-04-25T17:02:14.802Z,23.43
2018-04-25T17:04:42.437Z,23.24
2018-04-25T17:07:09.991Z,23.05
2018-04-25T17:09:37.612Z,22.90
2018-04-25T17:12:05.239Z,22.71
2018-04-25T17:14:32.950Z,22.57
2018-04-25T17:17:00.518Z,22.40
2018-04-25T17:19:28.091Z,22.27
2018-04-25T17:21:55.673Z,22.14
2018-04-25T17:24:23.267Z,22.00
2018-04-25T17:26:50.841Z,21.86
2018-04-25T17:29:18.485Z,21.73
2018-04-25T17:31:46.152Z,21.59
2018-04-25T17:34:13.792Z,21.49
2018-04-25T17:36:41.417Z,21.40
2018-04-25T17:39:08.999Z,21.32
2018-04-25T17:41:36.688Z,21.24
2018-04-25T17:44:04.238Z,21.13
2018-04-25T17:46:31.807Z,21.03
2018-04-25T17:48:59.489Z,20.96
2018-04-25T17:51:27.075Z,20.90
2018-04-25T17:53:54.656Z,20.83
2018-04-25T17:56:22.236Z,20.76
2018-04-25T17:58:49.830Z,20.69
2018-04-25T18:01:17.457Z,20.63
2018-04-25T18:03:45.025Z,20.56
2018-04-25T18:06:12.681Z,20.52
2018-04-25T18:08:40.321Z,20.48
2018-04-25T18:11:07.916Z,20.44
2018-04-25T18:13:35.481Z,20.38
2018-04-25T18:16:03.080Z,20.37
2018-04-25T18:18:30.716Z,20.32
2018-04-25T18:20:58.293Z,20.26
2018-04-25T18:23:25.908Z,20.26
2018-04-25T18:25:53.476Z,20.25
2018-04-25T18:28:21.040Z,20.28
2018-04-25T18:30:48.681Z,20.31
2018-04-25T18:33:16.329Z,20.31
2018-04-25T18:35:43.971Z,20.32
2018-04-25T18:38:11.599Z,20.33
2018-04-25T18:40:39.212Z,20.35
2018-04-25T18:43:06.849Z,20.39
2018-04-25T18:45:34.407Z,20.43
2018-04-25T18:48:02.052Z,20.49
2018-04-25T18:50:29.659Z,20.48
2018-04-25T18:52:57.241Z,20.54
2018-04-25T18:55:24.801Z,20.59
2018-04-25T18:57:52.475Z,20.78
2018-04-25T19:00:20.060Z,20.76
2018-04-25T19:02:47.704Z,20.82
2018-04-25T19:05:15.426Z,20.90
2018-04-25T19:07:43.007Z,20.97
2018-04-25T19:10:10.582Z,21.08
2018-04-25T19:12:38.140Z,21.13
2018-04-25T19:15:05.797Z,21.15
2018-04-25T19:17:33.386Z,21.08
2018-04-25T19:20:00.973Z,21.11
2018-04-25T19:22:28.605Z,21.09
2018-04-25T19:24:56.190Z,21.10
2018-04-25T19:27:23.760Z,21.08
2018-04-25T19:29:51.382Z,21.07
2018-04-25T19:32:19.031Z,21.04
2018-04-25T19:34:46.593Z,21.06
2018-04-25T19:37:14.168Z,21.05
2018-04-25T19:39:41.777Z,21.02
2018-04-25T19:42:09.332Z,21.05
2018-04-25T19:44:37.014Z,21.05
2018-04-25T19:47:04.641Z,21.03
2018-04-25T19:49:32.264Z,21.05
2018-04-25T19:51:59.828Z,21.07
2018-04-25T19:54:27.447Z,21.13
2018-04-25T19:56:55.063Z,21.11
2018-04-25T19:59:22.641Z,21.07
2018-04-25T20:01:50.222Z,21.07
2018-04-25T20:04:17.825Z,21.00
2018-04-25T20:06:45.448Z,20.95
2018-04-25T20:09:13.061Z,20.88
2018-04-25T20:11:40.633Z,20.86
2018-04-25T20:14:08.204Z,20.72
2018-04-25T20:16:35.773Z,20.59
2018-04-25T20:19:03.404Z,20.49
2018-04-25T20:21:31.042Z,20.34
2018-04-25T20:23:58.656Z,20.31
2018-04-25T20:26:26.361Z,20.24
2018-04-25T20:28:53.901Z,20.12
2018-04-25T20:31:21.468Z,20.02
2018-04-25T20:33:49.048Z,19.97
2018-04-25T20:36:16.664Z,19.90
2018-04-25T20:38:44.300Z,19.83
2018-04-25T20:41:11.912Z,19.80
2018-04-25T20:43:39.480Z,19.78
2018-04-25T20:46:07.066Z,19.73
2018-04-25T20:48:34.647Z,19.69
2018-04-25T20:51:02.249Z,19.70
2018-04-25T20:53:29.883Z,19.65
2018-04-25T20:55:57.450Z,19.61
2018-04-25T20:58:25.066Z,19.55
2018-04-25T21:00:53.416Z,19.46
2018-04-25T21:03:21.021Z,19.38
2018-04-25T21:05:48.673Z,19.36
2018-04-25T21:08:16.241Z,19.33
2018-04-25T21:10:43.917Z,19.28
2018-04-25T21:13:11.605Z,19.12
2018-04-25T21:15:39.550Z,19.02
2018-04-25T21:18:07.129Z,18.92
2018-04-25T21:20:34.721Z,18.74
2018-04-25T21:23:02.364Z,18.64
2018-04-25T21:25:30.876Z,18.68
2018-04-25T21:27:58.436Z,18.64
2018-04-25T21:30:26.002Z,18.54
2018-04-25T21:32:53.577Z,18.46
2018-04-25T21:35:21.275Z,18.38
2018-04-25T21:37:48.972Z,18.32
2018-04-25T21:40:16.595Z,18.24
2018-04-25T21:42:44.172Z,18.20
2018-04-25T21:45:11.745Z,18.13
2018-04-25T21:47:39.392Z,18.15
2018-04-25T21:50:07.041Z,17.98
2018-04-25T21:52:34.593Z,17.81
2018-04-25T21:55:02.202Z,17.64
2018-04-25T21:57:29.836Z,17.61
2018-04-25T21:59:57.499Z,17.54
2018-04-25T22:02:25.065Z,17.46
2018-04-25T22:04:53.077Z,17.41
2018-04-25T22:07:20.776Z,17.36
2018-04-25T22:09:48.365Z,17.37
2018-04-25T22:12:15.990Z,17.39
2018-04-25T22:14:43.630Z,17.37
2018-04-25T22:17:11.220Z,17.37
2018-04-25T22:19:38.889Z,17.42
2018-04-25T22:22:06.521Z,17.44
2018-04-25T22:24:34.895Z,17.35
2018-04-25T22:27:02.500Z,17.34
2018-04-25T22:29:30.072Z,17.39
2018-04-25T22:31:57.630Z,17.44
2018-04-25T22:34:25.208Z,17.53
2018-04-25T22:36:52.844Z,17.52
2018-04-25T22:39:20.466Z,17.51
2018-04-25T22:41:48.116Z,17.38
2018-04-25T22:44:15.782Z,17.33
2018-04-25T22:46:43.400Z,17.24
2018-04-25T22:49:11.031Z,17.14
2018-04-25T22:51:38.667Z,17.08
2018-04-25T22:54:06.292Z,16.99
2018-04-25T22:56:33.908Z,16.91
2018-04-25T22:59:01.537Z,16.78
2018-04-25T23:01:29.263Z,16.65
2018-04-25T23:03:56.841Z,16.56
2018-04-25T23:06:24.458Z,16.45
2018-04-25T23:08:52.096Z,16.40
2018-04-25T23:11:19.737Z,16.40
2018-04-25T23:13:47.450Z,16.37
2018-04-25T23:16:15.072Z,16.37
2018-04-25T23:18:42.717Z,16.38
2018-04-25T23:21:10.400Z,16.33
2018-04-25T23:23:38.956Z,16.36
2018-04-25T23:26:06.634Z,16.34
2018-04-25T23:32:05.052Z,16.20
2018-04-25T23:34:32.676Z,16.18
2018-04-25T23:37:00.287Z,16.20
2018-04-25T23:39:27.927Z,16.17
2018-04-25T23:41:55.561Z,16.13
2018-04-25T23:44:23.234Z,16.07
2018-04-25T23:46:50.867Z,15.98
2018-04-25T23:49:18.600Z,15.93
2018-04-25T23:51:47.037Z,15.88
2018-04-25T23:54:14.763Z,15.86
2018-04-25T23:56:42.407Z,15.82
2018-04-25T23:59:10.040Z,15.81
